Terminal Aerodrome Forecast
Issued by NWS

Home | Current Version | Previous Version | Text Only | Print | Product List | Glossary On
Versions: 1 2 3 4 5 6 7 8 9 10 11 12 13 14 15 16 17 18
000
FTUS46 KPDT 201403 AAC
TAFBDN
TAF AMD
KBDN 201403Z 2014/2112 21015G25KT 6SM -RA SCT035 OVC060
      TEMPO 2014/2017 3SM -RA BR
     FM202000 23012G20KT P6SM VCSH SCT025 BKN040
     FM210000 20008KT P6SM BKN050
     FM210700 19006KT 6SM -RA OVC040=

USA.gov is the U.S. government's official web portal to all federal, state and local government web resources and services.